WetterOnline ( https://www.wetteronline.ch )

Wetter aktuell Großer Arber

Aktuelles Wetter: Großer Arber (1446m)

6-stündlich | Neueste Meldungen
Ortszeit Temperatur Wetter
Mo, 16.09. 8:00 11.0° C wolkig
Mo, 16.09. 2:00 11.8° C wolkig
So, 15.09. 20:00 12.5° C wolkig
So, 15.09. 14:00 15.8° C wolkenlos
So, 15.09. 8:00 9.6° C wolkenlos
So, 15.09. 2:00 9.6° C Nebel
Sa, 14.09. 20:00 10.3° C leicht bewölkt
Sa, 14.09. 14:00 11.8° C bedeckt
Ortszeit Temperatur Wetter
Mo, 16.09. 9:30 11.5° C wolkig
Mo, 16.09. 9:20 11.5° C wolkig
Mo, 16.09. 9:10 11.6° C wolkig
Mo, 16.09. 9:00 10.8° C bedeckt
Mo, 16.09. 8:50 10.8° C bedeckt
Mo, 16.09. 8:40 10.8° C bedeckt
Mo, 16.09. 8:30 11.1° C bedeckt
Mo, 16.09. 8:00 11.0° C wolkig
Ortszeit Relative Feuchte Sichtweite
Mo, 16.09. 8:00 76% 30 km
Mo, 16.09. 2:00 71% 65 km
So, 15.09. 20:00 88% 23 km
So, 15.09. 14:00 61% >70 km
So, 15.09. 8:00 93% 8 km
So, 15.09. 2:00 99% 100 m
Sa, 14.09. 20:00 94% 20 km
Sa, 14.09. 14:00 86% 35 km
Ortszeit Relative Feuchte Sichtweite
Mo, 16.09. 9:30 78% 30 km
Mo, 16.09. 9:20 78% -
Mo, 16.09. 9:10 77% -
Mo, 16.09. 9:00 82% 27 km
Mo, 16.09. 8:50 82% -
Mo, 16.09. 8:40 82% -
Mo, 16.09. 8:30 80% 30 km
Mo, 16.09. 8:00 76% 30 km
Ortszeit Niederschlagsmenge Niederschlagsart
Mo, 16.09. 8:00 0.0 l/m2 in 12 Std. -
Mo, 16.09. 2:00 0.0 l/m2 in 6 Std. -
So, 15.09. 20:00 0.0 l/m2 in 12 Std. -
So, 15.09. 14:00 0.0 l/m2 in 6 Std. -
So, 15.09. 8:00 0.1 l/m2 in 12 Std. -
So, 15.09. 2:00 0.0 l/m2 in 6 Std. -
Sa, 14.09. 20:00 0.0 l/m2 in 12 Std. -
Sa, 14.09. 14:00 0.0 l/m2 in 6 Std. -
Ortszeit Niederschlagsmenge Niederschlagsart
Mo, 16.09. 9:30 0.0 l/m2 in 1 Std. -
Mo, 16.09. 9:20 keine Meldung -
Mo, 16.09. 9:10 keine Meldung -
Mo, 16.09. 9:00 0.0 l/m2 in 1 Std. -
Mo, 16.09. 8:50 keine Meldung -
Mo, 16.09. 8:40 keine Meldung -
Mo, 16.09. 8:30 0.0 l/m2 in 1 Std. -
Mo, 16.09. 8:00 0.0 l/m2 in 1 Std. -
Ortszeit Stärke Spitze Richtung
km/h Bft. km/h Grad Sektor
Mo, 16.09. 8:00 28 4 41 280° W
Mo, 16.09. 2:00 30 5 48 270° W
So, 15.09. 20:00 30 5 35 230° SW
So, 15.09. 14:00 15 3 26 230° SW
So, 15.09. 8:00 15 3 22 220° SW
So, 15.09. 2:00 14 3 22 200° S
Sa, 14.09. 20:00 13 3 17 180° S
Sa, 14.09. 14:00 7 2 18 360° N
Ortszeit Stärke Spitze Richtung
km/h Bft. km/h Grad Sektor
Mo, 16.09. 9:30 31 5 43 260° W
Mo, 16.09. 9:20 31 5 - 260° W
Mo, 16.09. 9:10 31 5 - 270° W
Mo, 16.09. 9:00 30 5 39 270° W
Mo, 16.09. 8:50 30 5 - 270° W
Mo, 16.09. 8:40 28 4 - 280° W
Mo, 16.09. 8:30 26 4 37 280° W
Mo, 16.09. 8:00 28 4 41 280° W
Ortszeit Untergrenze Bedeckung Gattung
total tief tief mittel hoch
Mo, 16.09. 8:00 6900 m 7/8 5/8 - - -
Mo, 16.09. 2:00 8700 m 8/8 0/8 - - -
So, 15.09. 20:00 10500 m 8/8 0/8 - - -
So, 15.09. 14:00 - 0/8 0/8 - - -
So, 15.09. 8:00 - 0/8 0/8 - - -
So, 15.09. 2:00 <30 m 8/8 0/8 - - -
Sa, 14.09. 20:00 150 m 4/8 4/8 - - -
Sa, 14.09. 14:00 90 m 8/8 8/8 - - -
Ortszeit Bedeckungsgrad in Achtel und Wolkenuntergrenze
Mo, 16.09. 9:30 3(6900m) 8(9000m) 8(9000m)
Mo, 16.09. 9:20 3(6900m) 8(9000m) 8(9000m)
Mo, 16.09. 9:10 3(6600m) 7(8100m) 8(9000m)
Mo, 16.09. 9:00 8(6600m) 8(8700m) 8(9000m)
Mo, 16.09. 8:50 8(6600m) 8(8700m) 8(9000m)
Mo, 16.09. 8:40 8(6600m) 8(8700m)
Mo, 16.09. 8:30 8(6600m) 8(7500m) 8(8700m)
Mo, 16.09. 8:00 5(6900m) 7(7800m)
Ortszeit Stationsdruck (hPa) Tendenz (hPa in 3 Std.)
Mo, 16.09. 8:00 860 - 0,5
Mo, 16.09. 2:00 861 - 0,7
So, 15.09. 20:00 862 - 1,0
So, 15.09. 14:00 864 - 0,8
So, 15.09. 8:00 865 - 0,7
So, 15.09. 2:00 867 - 1,2
Sa, 14.09. 20:00 868 - 0,3
Sa, 14.09. 14:00 869 - 0,5
Ortszeit Stationsdruck (hPa) Tendenz (hPa in 3 Std.)
Mo, 16.09. 9:30 860 + 0,2
Mo, 16.09. 9:20 860 keine Meldung
Mo, 16.09. 9:10 860 keine Meldung
Mo, 16.09. 9:00 860 - 0,1
Mo, 16.09. 8:50 860 keine Meldung
Mo, 16.09. 8:40 860 keine Meldung
Mo, 16.09. 8:30 860 - 0,3
Mo, 16.09. 8:00 860 - 0,5
Ortszeit Schneehöhe (cm)
Mo, 16.09. 8:00 -
Mo, 16.09. 2:00 -
So, 15.09. 20:00 -
So, 15.09. 14:00 -
So, 15.09. 8:00 -
So, 15.09. 2:00 -
Sa, 14.09. 20:00 -
Sa, 14.09. 14:00 -
Ortszeit Schneehöhe (cm)
Mo, 16.09. 9:30 -
Mo, 16.09. 9:20 -
Mo, 16.09. 9:10 -
Mo, 16.09. 9:00 -
Mo, 16.09. 8:50 -
Mo, 16.09. 8:40 -
Mo, 16.09. 8:30 -
Mo, 16.09. 8:00 -
Link zu dieser Seite / Seite empfehlen

Das Wetter in ...